createdAt,value
2023-03-23T00:01:05.724Z,34.48
2023-03-23T00:05:05.668Z,34.45
2023-03-23T00:09:05.650Z,34.45
2023-03-23T00:13:05.598Z,34.45
2023-03-23T00:17:06.058Z,34.43
2023-03-23T00:21:05.825Z,34.44
2023-03-23T00:25:06.090Z,34.43
2023-03-23T00:29:06.247Z,34.42
2023-03-23T00:33:06.423Z,34.43
2023-03-23T00:37:06.601Z,34.42
2023-03-23T00:41:06.815Z,34.40
2023-03-23T00:45:06.959Z,34.41
2023-03-23T00:49:07.194Z,34.39
2023-03-23T00:53:07.368Z,34.41
2023-03-23T00:57:07.489Z,34.40
2023-03-23T01:01:07.672Z,34.41
2023-03-23T01:05:07.786Z,34.41
2023-03-23T01:09:08.080Z,34.40
2023-03-23T01:13:08.131Z,34.41
2023-03-23T01:17:08.264Z,34.41
2023-03-23T01:21:08.412Z,34.39
2023-03-23T01:25:08.615Z,34.41
2023-03-23T01:29:08.803Z,34.39
2023-03-23T01:33:08.867Z,34.36
2023-03-23T01:37:09.014Z,34.37
2023-03-23T01:41:09.184Z,34.37
2023-03-23T01:45:09.599Z,34.34
2023-03-23T01:49:09.416Z,34.36
2023-03-23T01:53:10.125Z,34.34
2023-03-23T01:57:09.673Z,34.33
2023-03-23T02:01:09.800Z,34.30
2023-03-23T02:05:09.935Z,34.30
2023-03-23T02:09:10.387Z,34.28
2023-03-23T02:13:12.350Z,34.29
2023-03-23T02:17:10.145Z,34.28
2023-03-23T02:21:10.070Z,34.28
2023-03-23T02:25:10.039Z,34.26
2023-03-23T02:29:10.024Z,34.29
2023-03-23T02:33:10.054Z,34.27
2023-03-23T02:37:10.032Z,34.28
2023-03-23T02:41:09.934Z,34.30
2023-03-23T02:45:09.868Z,34.32
2023-03-23T02:49:10.556Z,34.29
2023-03-23T02:53:09.821Z,34.30
2023-03-23T02:57:09.762Z,34.30
2023-03-23T03:01:10.110Z,34.27
2023-03-23T03:05:09.959Z,34.31
2023-03-23T03:09:09.628Z,34.28
2023-03-23T03:13:09.614Z,34.28
2023-03-23T03:17:09.581Z,34.26
2023-03-23T03:21:10.581Z,34.26
2023-03-23T03:25:17.798Z,34.26
2023-03-23T03:29:10.630Z,34.27
2023-03-23T03:33:10.592Z,34.27
2023-03-23T03:37:09.607Z,34.28
2023-03-23T03:41:09.509Z,34.26
2023-03-23T03:45:09.689Z,34.27
2023-03-23T03:49:09.585Z,34.26
2023-03-23T03:53:09.532Z,34.26
2023-03-23T03:57:09.568Z,34.28
2023-03-23T04:01:09.436Z,34.24
2023-03-23T04:05:09.511Z,34.26
2023-03-23T04:09:09.394Z,34.22
2023-03-23T04:13:09.596Z,34.22
2023-03-23T04:17:09.325Z,34.23
2023-03-23T04:21:09.355Z,34.21
2023-03-23T04:25:09.206Z,34.19
2023-03-23T04:29:09.188Z,34.22
2023-03-23T04:33:09.213Z,34.22
2023-03-23T04:37:09.120Z,34.20
2023-03-23T04:41:09.094Z,34.21
2023-03-23T04:45:09.130Z,34.21
2023-03-23T04:49:09.169Z,34.21
2023-03-23T04:53:09.217Z,34.23
2023-03-23T04:57:09.295Z,34.22
2023-03-23T05:01:09.378Z,34.23
2023-03-23T05:05:09.526Z,34.19
2023-03-23T05:09:09.526Z,34.19
2023-03-23T05:13:09.590Z,34.20
2023-03-23T05:17:09.559Z,34.19
2023-03-23T05:21:09.639Z,34.17
2023-03-23T05:25:09.697Z,34.19
2023-03-23T05:29:09.781Z,34.15
2023-03-23T05:33:09.825Z,34.13
2023-03-23T05:37:11.321Z,34.13
2023-03-23T05:41:09.904Z,34.11
2023-03-23T05:45:10.027Z,34.06
2023-03-23T05:49:10.134Z,33.98
2023-03-23T05:53:11.336Z,33.96
2023-03-23T05:57:10.183Z,33.90
2023-03-23T06:01:10.261Z,33.83
2023-03-23T06:05:11.251Z,33.76
2023-03-23T06:09:10.255Z,33.70
2023-03-23T06:13:10.089Z,33.64
2023-03-23T06:17:10.712Z,33.66
2023-03-23T06:21:10.108Z,33.67
2023-03-23T06:25:11.444Z,33.68
2023-03-23T06:29:10.400Z,33.68
2023-03-23T06:33:09.926Z,33.71
2023-03-23T06:37:10.707Z,34.08
2023-03-23T06:41:10.061Z,34.80
2023-03-23T06:45:10.374Z,34.85
2023-03-23T06:49:09.955Z,35.98
2023-03-23T06:53:09.897Z,36.01
2023-03-23T06:57:09.977Z,35.61
2023-03-23T07:01:09.863Z,35.80
2023-03-23T07:05:09.963Z,34.77
2023-03-23T07:09:09.820Z,35.26
2023-03-23T07:13:11.426Z,35.48
2023-03-23T07:17:10.388Z,34.48
2023-03-23T07:25:28.950Z,34.55
2023-03-23T07:29:28.826Z,34.51
2023-03-23T07:33:29.156Z,34.47
2023-03-23T07:37:31.073Z,35.59
2023-03-23T07:41:29.016Z,35.57
2023-03-23T07:45:29.124Z,35.67
2023-03-23T07:49:29.347Z,35.75
2023-03-23T07:53:31.521Z,35.80
2023-03-23T07:57:29.651Z,35.79
2023-03-23T08:01:30.107Z,35.65
2023-03-23T08:05:32.429Z,35.28
2023-03-23T08:09:29.682Z,35.21
2023-03-23T08:13:29.678Z,35.14
2023-03-23T08:17:29.603Z,35.19
2023-03-23T08:21:29.574Z,35.27
2023-03-23T08:25:29.850Z,35.35
2023-03-23T08:29:30.432Z,35.44
2023-03-23T08:33:30.054Z,35.67
2023-03-23T08:37:29.466Z,35.90
2023-03-23T08:41:29.388Z,36.56
2023-03-23T08:45:29.405Z,36.48
2023-03-23T08:49:29.480Z,36.45
2023-03-23T08:53:29.305Z,36.22
2023-03-23T08:57:29.299Z,36.10
2023-03-23T09:01:29.872Z,35.87
2023-03-23T09:05:29.293Z,35.65
2023-03-23T09:09:30.063Z,35.50
2023-03-23T09:13:29.413Z,35.30
2023-03-23T09:17:29.575Z,35.04
2023-03-23T09:21:29.775Z,34.84
2023-03-23T09:25:29.503Z,34.71
2023-03-23T09:29:29.469Z,34.33
2023-03-23T09:33:29.357Z,34.07
2023-03-23T09:37:30.074Z,33.99
2023-03-23T09:41:29.417Z,33.12
2023-03-23T09:45:29.368Z,33.40
2023-03-23T09:49:29.470Z,33.52
2023-03-23T09:53:30.181Z,33.47
2023-03-23T09:57:29.514Z,33.44
2023-03-23T10:01:29.393Z,33.35
2023-03-23T10:05:29.275Z,33.18
2023-03-23T10:09:29.245Z,32.94
2023-03-23T10:13:29.310Z,32.94
2023-03-23T10:17:29.259Z,32.72
2023-03-23T10:21:29.183Z,32.57
2023-03-23T10:25:29.102Z,32.61
2023-03-23T10:29:29.118Z,32.56
2023-03-23T10:33:29.080Z,32.43
2023-03-23T10:37:29.370Z,33.10
2023-03-23T10:41:29.022Z,33.62
2023-03-23T10:45:29.313Z,33.76
2023-03-23T10:49:29.451Z,32.79
2023-03-23T10:53:30.373Z,33.57
2023-03-23T10:57:29.920Z,34.14
2023-03-23T11:01:29.464Z,34.68
2023-03-23T11:05:29.761Z,35.34
2023-03-23T11:09:29.638Z,36.01
2023-03-23T11:13:29.410Z,36.33
2023-03-23T11:17:29.559Z,36.51
2023-03-23T11:21:29.325Z,35.22
2023-03-23T11:25:29.222Z,33.54
2023-03-23T11:29:29.362Z,35.09
2023-03-23T11:33:29.308Z,35.79
2023-03-23T11:37:29.308Z,35.32
2023-03-23T11:41:29.111Z,35.56
2023-03-23T11:45:29.656Z,35.64
2023-03-23T11:49:30.412Z,35.63
2023-03-23T11:53:29.414Z,35.68
2023-03-23T11:57:29.794Z,35.78
2023-03-23T12:01:30.121Z,35.83
2023-03-23T12:05:29.629Z,35.78
2023-03-23T12:09:29.745Z,35.79
2023-03-23T12:13:29.980Z,36.22
2023-03-23T12:17:30.496Z,36.42
2023-03-23T12:21:30.367Z,36.31
2023-03-23T12:25:30.341Z,36.35
2023-03-23T12:29:30.477Z,36.38
2023-03-23T12:33:30.593Z,36.35
2023-03-23T12:37:30.830Z,36.38
2023-03-23T12:41:30.907Z,36.26
2023-03-23T12:45:31.079Z,36.06
2023-03-23T12:49:31.106Z,35.91
2023-03-23T12:53:31.227Z,35.80
2023-03-23T12:57:31.306Z,35.81
2023-03-23T13:05:31.290Z,35.82
2023-03-23T13:09:31.270Z,35.79
2023-03-23T13:13:31.888Z,35.77
2023-03-23T13:17:31.222Z,35.86
2023-03-23T13:21:31.256Z,35.83
2023-03-23T13:25:31.148Z,35.83
2023-03-23T13:29:31.095Z,35.78
2023-03-23T13:33:31.216Z,35.88
2023-03-23T13:37:31.173Z,35.92
2023-03-23T13:41:31.240Z,35.91
2023-03-23T13:45:30.920Z,35.91
2023-03-23T13:49:30.879Z,36.02
2023-03-23T13:53:30.901Z,35.97
2023-03-23T13:57:30.838Z,35.99
2023-03-23T14:01:30.765Z,35.95
2023-03-23T14:05:30.744Z,35.97
2023-03-23T14:09:30.775Z,36.02
2023-03-23T14:13:30.884Z,36.04
2023-03-23T14:17:31.059Z,36.13
2023-03-23T14:21:31.192Z,36.24
2023-03-23T14:25:31.349Z,35.97
2023-03-23T14:29:31.587Z,36.24
2023-03-23T14:33:31.766Z,37.69
2023-03-23T14:37:31.849Z,38.19
2023-03-23T14:41:31.653Z,38.25
2023-03-23T14:45:31.626Z,38.20
2023-03-23T14:49:31.595Z,38.37
2023-03-23T14:53:31.635Z,38.35
2023-03-23T14:57:31.742Z,38.31
2023-03-23T15:01:31.479Z,38.37
2023-03-23T15:05:31.483Z,38.22
2023-03-23T15:09:31.746Z,38.20
2023-03-23T15:13:31.567Z,38.27
2023-03-23T15:17:31.806Z,38.19
2023-03-23T15:21:31.433Z,38.15
2023-03-23T15:25:31.372Z,38.06
2023-03-23T15:29:31.317Z,38.06
2023-03-23T15:33:31.293Z,38.00
2023-03-23T15:37:31.261Z,37.94
2023-03-23T15:41:31.232Z,37.94
2023-03-23T15:45:31.181Z,37.94
2023-03-23T15:49:31.420Z,37.92
2023-03-23T15:53:32.081Z,37.91
2023-03-23T15:57:31.088Z,37.84
2023-03-23T16:01:31.204Z,37.83
2023-03-23T16:05:31.147Z,37.81
2023-03-23T16:09:31.116Z,37.80
2023-03-23T16:13:31.147Z,37.78
2023-03-23T16:17:31.143Z,37.74
2023-03-23T16:21:31.066Z,37.74
2023-03-23T16:25:31.374Z,37.72
2023-03-23T16:33:31.160Z,37.69
2023-03-23T16:37:30.954Z,37.67
2023-03-23T16:41:30.962Z,37.67
2023-03-23T16:45:30.929Z,37.68
2023-03-23T16:49:30.891Z,37.65
2023-03-23T16:53:30.834Z,37.67
2023-03-23T16:57:30.777Z,37.59
2023-03-23T17:01:30.839Z,37.56
2023-03-23T17:05:30.717Z,37.60
2023-03-23T17:09:30.735Z,37.61
2023-03-23T17:13:30.640Z,37.54
2023-03-23T17:17:30.667Z,37.57
2023-03-23T17:21:30.567Z,37.54
2023-03-23T17:25:30.599Z,37.41
2023-03-23T17:29:30.580Z,37.47
2023-03-23T17:33:30.554Z,37.42
2023-03-23T17:37:30.453Z,37.56
2023-03-23T17:41:30.390Z,37.44
2023-03-23T17:45:30.434Z,37.40
2023-03-23T17:49:30.384Z,37.43
2023-03-23T17:53:30.771Z,37.42
2023-03-23T17:57:30.280Z,37.41
2023-03-23T18:01:30.281Z,37.39
2023-03-23T18:05:30.156Z,37.39
2023-03-23T18:09:30.152Z,37.35
2023-03-23T18:13:30.104Z,37.34
2023-03-23T18:17:30.365Z,37.33
2023-03-23T18:21:30.228Z,37.43
2023-03-23T18:25:30.076Z,37.41
2023-03-23T18:29:30.101Z,37.38
2023-03-23T18:33:30.133Z,37.36
2023-03-23T18:37:30.150Z,37.38
2023-03-23T18:41:30.198Z,37.31
2023-03-23T18:45:30.236Z,37.34
2023-03-23T18:49:30.348Z,37.32
2023-03-23T18:53:30.369Z,37.38
2023-03-23T18:57:30.370Z,37.33
2023-03-23T19:01:30.502Z,37.33
2023-03-23T19:05:30.532Z,37.28
2023-03-23T19:09:30.521Z,37.33
2023-03-23T19:13:30.678Z,37.33
2023-03-23T19:17:30.680Z,37.30
2023-03-23T19:21:31.763Z,37.31
2023-03-23T19:25:30.625Z,37.31
2023-03-23T19:29:31.346Z,37.32
2023-03-23T19:33:30.751Z,37.32
2023-03-23T19:37:34.576Z,37.28
2023-03-23T19:41:30.692Z,37.23
2023-03-23T19:45:30.661Z,37.24
2023-03-23T19:49:30.693Z,37.27
2023-03-23T19:53:31.416Z,37.26
2023-03-23T19:57:30.570Z,37.24
2023-03-23T20:01:31.336Z,37.25
2023-03-23T20:05:30.828Z,37.26
2023-03-23T20:13:30.503Z,37.22
2023-03-23T20:17:30.671Z,37.20
2023-03-23T20:21:30.341Z,37.19
2023-03-23T20:25:30.942Z,37.23
2023-03-23T20:29:31.629Z,37.21
2023-03-23T20:33:30.856Z,37.22
2023-03-23T20:37:32.400Z,37.21
2023-03-23T20:41:30.810Z,37.18
2023-03-23T20:45:30.776Z,37.16
2023-03-23T20:49:30.918Z,37.16
2023-03-23T20:53:30.933Z,37.13
2023-03-23T20:57:31.099Z,37.16
2023-03-23T21:01:31.425Z,37.12
2023-03-23T21:05:31.934Z,37.14
2023-03-23T21:09:31.293Z,37.09
2023-03-23T21:13:31.384Z,37.11
2023-03-23T21:17:31.478Z,37.09
2023-03-23T21:21:31.546Z,37.13
2023-03-23T21:25:33.968Z,37.07
2023-03-23T21:29:31.877Z,37.07
2023-03-23T21:33:31.486Z,37.06
2023-03-23T21:37:32.354Z,37.06
2023-03-23T21:41:42.605Z,37.02
2023-03-23T21:45:33.722Z,37.06
2023-03-23T21:49:31.354Z,37.03
2023-03-23T21:53:31.610Z,37.04
2023-03-23T21:57:31.184Z,37.03
2023-03-23T22:01:31.489Z,37.04
2023-03-23T22:05:31.133Z,37.03
2023-03-23T22:09:31.105Z,37.02
2023-03-23T22:13:31.088Z,37.04
2023-03-23T22:17:31.050Z,36.99
2023-03-23T22:21:31.011Z,37.03
2023-03-23T22:25:30.912Z,36.99
2023-03-23T22:29:30.921Z,37.03
2023-03-23T22:33:30.852Z,36.99
2023-03-23T22:37:30.939Z,36.98
2023-03-23T22:41:30.807Z,37.00
2023-03-23T22:45:31.067Z,36.97
2023-03-23T22:49:31.058Z,36.98
2023-03-23T22:53:31.300Z,36.98
2023-03-23T22:57:31.473Z,37.00
2023-03-23T23:01:31.728Z,36.97
2023-03-23T23:05:31.666Z,36.95
2023-03-23T23:09:31.932Z,36.95
2023-03-23T23:13:33.293Z,36.94
2023-03-23T23:17:32.258Z,36.93
2023-03-23T23:21:32.356Z,36.93
2023-03-23T23:25:33.477Z,36.94
2023-03-23T23:29:32.722Z,36.90
2023-03-23T23:33:33.474Z,36.89
2023-03-23T23:37:32.893Z,36.94
2023-03-23T23:41:33.112Z,36.89
2023-03-23T23:45:33.303Z,36.90
2023-03-23T23:49:33.397Z,36.91
2023-03-23T23:53:33.659Z,36.89
2023-03-23T23:57:33.737Z,36.91
